createdAt,value
2017-11-20T00:00:37.667Z,4.60
2017-11-20T00:03:10.093Z,4.60
2017-11-20T00:05:43.336Z,4.60
2017-11-20T00:08:15.799Z,4.60
2017-11-20T00:10:48.216Z,4.60
2017-11-20T00:13:21.514Z,4.60
2017-11-20T00:15:53.967Z,4.60
2017-11-20T00:18:26.527Z,4.60
2017-11-20T00:20:59.071Z,4.60
2017-11-20T00:23:32.431Z,4.60
2017-11-20T00:26:04.812Z,4.60
2017-11-20T00:28:37.183Z,4.60
2017-11-20T00:31:09.837Z,4.60
2017-11-20T00:33:42.466Z,4.60
2017-11-20T00:36:15.871Z,4.60
2017-11-20T00:38:49.523Z,4.50
2017-11-20T00:41:22.781Z,4.50
2017-11-20T00:43:55.711Z,4.60
2017-11-20T00:46:28.236Z,4.50
2017-11-20T00:49:02.302Z,4.50
2017-11-20T00:51:35.299Z,4.50
2017-11-20T00:54:07.959Z,4.50
2017-11-20T00:56:40.333Z,4.60
2017-11-20T00:59:12.730Z,4.60
2017-11-20T01:01:45.153Z,4.60
2017-11-20T01:04:18.445Z,4.60
2017-11-20T01:06:51.140Z,4.50
2017-11-20T01:09:23.574Z,4.50
2017-11-20T01:11:56.892Z,4.50
2017-11-20T01:14:29.466Z,4.60
2017-11-20T01:17:01.813Z,4.60
2017-11-20T01:19:34.397Z,4.60
2017-11-20T01:22:06.928Z,4.50
2017-11-20T01:24:40.326Z,4.50
2017-11-20T01:27:13.092Z,4.50
2017-11-20T01:29:46.425Z,4.50
2017-11-20T01:32:18.852Z,4.50
2017-11-20T01:34:51.354Z,4.50
2017-11-20T01:37:23.790Z,4.50
2017-11-20T01:39:56.340Z,4.50
2017-11-20T01:42:28.829Z,4.50
2017-11-20T01:45:01.819Z,4.50
2017-11-20T01:47:35.128Z,4.50
2017-11-20T01:50:07.850Z,4.50
2017-11-20T01:52:40.399Z,4.50
2017-11-20T01:55:13.785Z,4.50
2017-11-20T01:57:46.720Z,4.50
2017-11-20T02:00:19.323Z,4.50
2017-11-20T02:02:59.823Z,4.50
2017-11-20T02:05:32.709Z,4.50
2017-11-20T02:08:06.160Z,4.50
2017-11-20T02:10:39.346Z,4.40
2017-11-20T02:13:12.982Z,4.40
2017-11-20T02:15:45.976Z,4.40
2017-11-20T02:18:18.457Z,4.40
2017-11-20T02:20:51.024Z,4.40
2017-11-20T02:23:24.482Z,4.40
2017-11-20T02:25:58.783Z,4.40
2017-11-20T02:28:32.931Z,4.40
2017-11-20T02:31:05.922Z,4.40
2017-11-20T02:33:40.122Z,4.40
2017-11-20T02:36:13.469Z,4.40
2017-11-20T02:38:46.333Z,4.40
2017-11-20T02:41:18.825Z,4.40
2017-11-20T02:43:51.400Z,4.40
2017-11-20T02:46:23.971Z,4.40
2017-11-20T02:48:57.310Z,4.40
2017-11-20T02:51:30.759Z,4.40
2017-11-20T02:54:04.077Z,4.30
2017-11-20T02:56:36.700Z,4.30
2017-11-20T02:59:09.373Z,4.40
2017-11-20T03:01:42.774Z,4.40
2017-11-20T03:04:15.502Z,4.40
2017-11-20T03:06:47.958Z,4.40
2017-11-20T03:09:21.311Z,4.40
2017-11-20T03:11:54.000Z,4.40
2017-11-20T03:14:27.109Z,4.40
2017-11-20T03:16:59.628Z,4.40
2017-11-20T03:19:32.989Z,4.40
2017-11-20T03:22:06.989Z,4.40
2017-11-20T03:24:39.529Z,4.40
2017-11-20T03:27:12.887Z,4.40
2017-11-20T03:29:45.504Z,4.40
2017-11-20T03:32:17.985Z,4.40
2017-11-20T03:34:52.919Z,4.40
2017-11-20T03:37:25.851Z,4.40
2017-11-20T03:39:59.357Z,4.40
2017-11-20T03:42:31.844Z,4.40
2017-11-20T03:45:04.335Z,4.40
2017-11-20T03:47:36.804Z,4.40
2017-11-20T03:50:09.443Z,4.40
2017-11-20T03:52:43.566Z,4.40
2017-11-20T03:55:16.244Z,4.40
2017-11-20T03:57:48.677Z,4.40
2017-11-20T04:00:21.994Z,4.40
2017-11-20T04:02:54.482Z,4.30
2017-11-20T04:05:27.855Z,4.30
2017-11-20T04:08:01.636Z,4.30
2017-11-20T04:10:35.766Z,4.30
2017-11-20T04:13:08.465Z,4.30
2017-11-20T04:15:40.975Z,4.30
2017-11-20T04:18:13.492Z,4.20
2017-11-20T04:20:46.058Z,4.30
2017-11-20T04:23:18.539Z,4.30
2017-11-20T04:25:51.738Z,4.20
2017-11-20T04:28:24.476Z,4.20
2017-11-20T04:30:57.765Z,4.30
2017-11-20T04:33:30.294Z,4.30
2017-11-20T04:36:02.794Z,4.20
2017-11-20T04:38:36.811Z,4.20
2017-11-20T04:41:09.562Z,4.20
2017-11-20T04:43:42.962Z,4.20
2017-11-20T04:46:16.378Z,4.30
2017-11-20T04:48:50.588Z,4.30
2017-11-20T04:51:23.304Z,4.30
2017-11-20T04:53:56.785Z,4.30
2017-11-20T04:56:30.228Z,4.30
2017-11-20T04:59:03.623Z,4.20
2017-11-20T05:01:37.780Z,4.20
2017-11-20T05:04:10.608Z,4.20
2017-11-20T05:06:43.811Z,4.20
2017-11-20T05:09:16.205Z,4.20
2017-11-20T05:11:48.660Z,4.20
2017-11-20T05:14:21.011Z,4.20
2017-11-20T05:16:53.569Z,4.20
2017-11-20T05:19:26.922Z,4.20
2017-11-20T05:22:00.555Z,4.20
2017-11-20T05:24:33.553Z,4.20
2017-11-20T05:27:05.924Z,4.20
2017-11-20T05:29:38.688Z,4.20
2017-11-20T05:32:11.074Z,4.20
2017-11-20T05:34:43.458Z,4.10
2017-11-20T05:37:15.949Z,4.10
2017-11-20T05:39:48.393Z,4.10
2017-11-20T05:42:20.875Z,4.00
2017-11-20T05:44:53.358Z,4.00
2017-11-20T05:47:25.733Z,4.00
2017-11-20T05:49:59.776Z,3.90
2017-11-20T05:52:32.468Z,3.80
2017-11-20T05:55:04.882Z,3.80
2017-11-20T05:57:37.321Z,3.80
2017-11-20T06:00:10.580Z,3.70
2017-11-20T06:02:43.127Z,3.70
2017-11-20T06:05:15.740Z,3.60
2017-11-20T06:07:48.164Z,3.60
2017-11-20T06:10:21.562Z,3.50
2017-11-20T06:12:54.058Z,3.50
2017-11-20T06:15:26.554Z,3.50
2017-11-20T06:17:59.067Z,3.50
2017-11-20T06:20:31.694Z,3.40
2017-11-20T06:23:04.085Z,3.40
2017-11-20T06:25:36.609Z,3.40
2017-11-20T06:28:09.058Z,3.40
2017-11-20T06:30:41.507Z,3.40
2017-11-20T06:33:14.232Z,3.40
2017-11-20T06:35:47.814Z,3.50
2017-11-20T06:38:20.412Z,3.50
2017-11-20T06:40:52.935Z,3.50
2017-11-20T06:43:25.571Z,3.50
2017-11-20T06:45:58.109Z,3.60
2017-11-20T06:48:30.515Z,3.60
2017-11-20T06:51:03.880Z,3.60
2017-11-20T06:53:36.258Z,3.70
2017-11-20T06:56:08.762Z,3.70
2017-11-20T06:58:41.215Z,3.80
2017-11-20T07:01:14.629Z,3.80
2017-11-20T07:03:47.767Z,3.90
2017-11-20T07:06:20.392Z,3.90
2017-11-20T07:08:52.837Z,4.00
2017-11-20T07:11:25.351Z,4.00
2017-11-20T07:13:57.815Z,4.10
2017-11-20T07:16:30.263Z,4.10
2017-11-20T07:19:02.667Z,4.20
2017-11-20T07:21:35.349Z,4.20
2017-11-20T07:24:07.811Z,4.20
2017-11-20T07:26:58.900Z,4.20
2017-11-20T07:29:50.539Z,4.20
2017-11-20T07:32:23.714Z,4.20
2017-11-20T07:34:56.226Z,4.30
2017-11-20T07:37:48.608Z,4.30
2017-11-20T07:40:21.652Z,4.30
2017-11-20T07:42:55.444Z,4.30
2017-11-20T07:45:28.299Z,4.30
2017-11-20T07:48:01.005Z,4.30
2017-11-20T07:50:34.442Z,4.30
2017-11-20T07:53:06.957Z,4.30
2017-11-20T07:55:39.589Z,4.40
2017-11-20T07:58:12.143Z,4.50
2017-11-20T08:00:45.476Z,4.60
2017-11-20T08:03:18.030Z,4.60
2017-11-20T08:05:50.433Z,4.70
2017-11-20T08:08:23.010Z,4.80
2017-11-20T08:10:56.205Z,4.80
2017-11-20T08:13:28.706Z,4.90
2017-11-20T08:16:01.227Z,5.00
2017-11-20T08:18:34.495Z,5.10
2017-11-20T08:21:07.924Z,5.10
2017-11-20T08:23:42.047Z,5.20
2017-11-20T08:26:14.861Z,5.20
2017-11-20T08:28:47.429Z,5.20
2017-11-20T08:31:19.950Z,5.20
2017-11-20T08:33:52.404Z,5.20
2017-11-20T08:36:25.793Z,5.20
2017-11-20T08:38:58.410Z,5.30
2017-11-20T08:41:30.982Z,5.30
2017-11-20T08:44:04.292Z,5.30
2017-11-20T08:46:36.913Z,5.30
2017-11-20T08:49:09.618Z,5.30
2017-11-20T08:51:42.990Z,5.30
2017-11-20T08:54:15.686Z,5.30
2017-11-20T08:56:48.762Z,5.30
2017-11-20T08:59:22.181Z,5.40
2017-11-20T09:01:55.017Z,5.40
2017-11-20T09:04:27.681Z,5.50
2017-11-20T09:07:00.204Z,5.50
2017-11-20T09:09:33.592Z,5.60
2017-11-20T09:12:07.512Z,5.60
2017-11-20T09:14:40.745Z,5.60
2017-11-20T09:17:13.407Z,5.60
2017-11-20T09:19:46.904Z,5.70
2017-11-20T09:22:21.043Z,5.70
2017-11-20T09:24:54.444Z,5.80
2017-11-20T09:27:27.792Z,5.80
2017-11-20T09:30:01.311Z,5.70
2017-11-20T09:32:33.684Z,5.80
2017-11-20T09:35:06.107Z,5.80
2017-11-20T09:37:39.421Z,5.80
2017-11-20T09:40:12.823Z,5.80
2017-11-20T09:42:47.042Z,5.90
2017-11-20T09:45:19.573Z,5.90
2017-11-20T09:47:52.936Z,6.00
2017-11-20T09:50:27.054Z,6.10
2017-11-20T09:52:59.981Z,6.10
2017-11-20T09:55:32.564Z,6.10
2017-11-20T09:58:04.949Z,6.10
2017-11-20T10:00:37.394Z,6.10
2017-11-20T10:03:09.920Z,6.20
2017-11-20T10:05:42.475Z,6.30
2017-11-20T10:08:15.108Z,6.30
2017-11-20T10:10:49.261Z,6.40
2017-11-20T10:13:23.216Z,6.40
2017-11-20T10:15:56.793Z,6.40
2017-11-20T10:18:29.488Z,6.40
2017-11-20T10:21:02.087Z,6.40
2017-11-20T10:23:35.406Z,6.40
2017-11-20T10:26:07.976Z,6.40
2017-11-20T10:28:40.593Z,6.40
2017-11-20T10:31:13.053Z,6.40
2017-11-20T10:33:46.449Z,6.40
2017-11-20T10:36:19.725Z,6.30
2017-11-20T10:38:52.850Z,6.30
2017-11-20T10:41:25.407Z,6.30
2017-11-20T10:43:58.009Z,6.30
2017-11-20T10:46:31.328Z,6.20
2017-11-20T10:49:03.829Z,6.20
2017-11-20T10:51:37.404Z,6.30
2017-11-20T10:54:10.115Z,6.30
2017-11-20T10:56:42.633Z,6.30
2017-11-20T10:59:15.264Z,6.30
2017-11-20T11:01:48.298Z,6.40
2017-11-20T11:04:21.347Z,6.30
2017-11-20T11:06:53.815Z,6.40
2017-11-20T11:09:26.386Z,6.40
2017-11-20T11:11:59.746Z,6.40
2017-11-20T11:14:32.471Z,6.40
2017-11-20T11:17:05.022Z,6.40
2017-11-20T11:19:37.474Z,6.40
2017-11-20T11:22:10.015Z,6.50
2017-11-20T11:24:42.592Z,6.50
2017-11-20T11:27:15.251Z,6.50
2017-11-20T11:29:48.604Z,6.50
2017-11-20T11:32:21.034Z,6.50
2017-11-20T11:34:55.224Z,6.50
2017-11-20T11:37:27.941Z,6.50
2017-11-20T11:40:00.607Z,6.50
2017-11-20T11:42:33.783Z,6.50
2017-11-20T11:45:06.174Z,6.50
2017-11-20T11:47:38.649Z,6.50
2017-11-20T11:50:11.871Z,6.50
2017-11-20T11:52:44.704Z,6.40
2017-11-20T11:55:17.180Z,6.50
2017-11-20T11:57:49.661Z,6.50
2017-11-20T12:00:22.982Z,6.50
2017-11-20T12:02:55.585Z,6.50
2017-11-20T12:05:28.977Z,6.50
2017-11-20T12:08:01.605Z,6.50
2017-11-20T12:10:34.960Z,6.40
2017-11-20T12:13:09.128Z,6.40
2017-11-20T12:15:41.876Z,6.40
2017-11-20T12:18:14.448Z,6.40
2017-11-20T12:20:47.859Z,6.40
2017-11-20T12:23:21.074Z,6.40
2017-11-20T12:25:53.885Z,6.40
2017-11-20T12:28:27.090Z,6.40
2017-11-20T12:30:59.925Z,6.40
2017-11-20T12:33:32.478Z,6.40
2017-11-20T12:36:05.823Z,6.30
2017-11-20T12:38:38.637Z,6.30
2017-11-20T12:41:11.442Z,6.30
2017-11-20T12:43:43.841Z,6.20
2017-11-20T12:46:17.263Z,6.20
2017-11-20T12:48:50.682Z,6.10
2017-11-20T12:51:23.997Z,6.10
2017-11-20T12:53:57.148Z,6.20
2017-11-20T12:56:29.716Z,6.20
2017-11-20T12:59:02.447Z,6.20
2017-11-20T13:01:34.897Z,6.10
2017-11-20T13:04:08.295Z,6.10
2017-11-20T13:06:41.751Z,6.10
2017-11-20T13:09:15.049Z,6.20
2017-11-20T13:11:48.325Z,6.20
2017-11-20T13:14:21.015Z,6.20
2017-11-20T13:16:54.454Z,6.30
2017-11-20T13:19:26.901Z,6.20
2017-11-20T13:21:59.437Z,6.30
2017-11-20T13:24:31.901Z,6.30
2017-11-20T13:27:04.533Z,6.30
2017-11-20T13:29:45.114Z,6.30
2017-11-20T13:32:18.456Z,6.30
2017-11-20T13:34:51.790Z,6.30
2017-11-20T13:37:24.453Z,6.30
2017-11-20T13:39:57.899Z,6.30
2017-11-20T13:42:31.350Z,6.30
2017-11-20T13:45:03.805Z,6.30
2017-11-20T13:47:36.410Z,6.30
2017-11-20T13:50:09.108Z,6.30
2017-11-20T13:52:41.558Z,6.30
2017-11-20T13:55:14.825Z,6.30
2017-11-20T13:57:47.356Z,6.20
2017-11-20T14:00:20.747Z,6.20
2017-11-20T14:02:53.961Z,6.20
2017-11-20T14:05:26.724Z,6.10
2017-11-20T14:07:59.250Z,6.10
2017-11-20T14:10:31.754Z,6.10
2017-11-20T14:13:04.323Z,6.00
2017-11-20T14:15:36.726Z,6.00
2017-11-20T14:18:09.992Z,5.80
2017-11-20T14:20:42.792Z,5.80
2017-11-20T14:23:15.945Z,5.70
2017-11-20T14:25:48.561Z,5.70
2017-11-20T14:28:21.786Z,5.60
2017-11-20T14:30:54.357Z,5.60
2017-11-20T14:33:26.862Z,5.50
2017-11-20T14:35:59.470Z,5.50
2017-11-20T14:38:32.046Z,5.50
2017-11-20T14:41:05.489Z,5.40
2017-11-20T14:43:38.623Z,5.30
2017-11-20T14:46:12.188Z,5.30
2017-11-20T14:48:44.771Z,5.30
2017-11-20T14:54:19.001Z,5.30
2017-11-20T14:56:51.987Z,5.20
2017-11-20T14:59:25.293Z,5.20
2017-11-20T15:01:58.939Z,5.20
2017-11-20T15:04:32.101Z,5.20
2017-11-20T15:07:05.734Z,5.20
2017-11-20T15:09:39.128Z,5.10
2017-11-20T15:12:11.723Z,5.10
2017-11-20T15:14:45.150Z,5.10
2017-11-20T15:17:17.633Z,5.10
2017-11-20T15:19:50.175Z,5.10
2017-11-20T15:22:23.683Z,5.00
2017-11-20T15:24:56.162Z,5.10
2017-11-20T15:27:29.822Z,5.10
2017-11-20T15:30:03.163Z,5.10
2017-11-20T15:32:35.811Z,5.10
2017-11-20T15:35:09.629Z,5.10
2017-11-20T15:37:42.944Z,5.10
2017-11-20T15:40:15.459Z,5.00
2017-11-20T15:42:48.826Z,5.00
2017-11-20T15:45:21.946Z,5.00
2017-11-20T15:47:54.467Z,5.10
2017-11-20T15:50:26.847Z,5.10
2017-11-20T15:52:59.966Z,5.10
2017-11-20T15:55:33.636Z,5.10
2017-11-20T15:58:06.896Z,5.00
2017-11-20T16:00:39.928Z,5.10
2017-11-20T16:03:12.725Z,5.00
2017-11-20T16:05:46.389Z,5.00
2017-11-20T16:08:19.243Z,5.00
2017-11-20T16:10:51.926Z,5.10
2017-11-20T16:13:25.110Z,5.10
2017-11-20T16:15:57.991Z,5.10
2017-11-20T16:18:30.562Z,5.10
2017-11-20T16:21:03.032Z,5.10
2017-11-20T16:23:36.199Z,5.10
2017-11-20T16:26:08.740Z,5.10
2017-11-20T16:28:41.289Z,5.10
2017-11-20T16:31:13.997Z,5.20
2017-11-20T16:33:46.546Z,5.20
2017-11-20T16:36:19.204Z,5.10
2017-11-20T16:38:51.753Z,5.10
2017-11-20T16:41:24.980Z,5.20
2017-11-20T16:43:58.734Z,5.10
2017-11-20T16:46:31.723Z,5.10
2017-11-20T16:49:04.287Z,5.10
2017-11-20T16:51:36.747Z,5.10
2017-11-20T16:54:10.045Z,5.00
2017-11-20T16:57:02.100Z,5.00
2017-11-20T16:59:36.503Z,5.00
2017-11-20T17:02:37.883Z,5.00
2017-11-20T17:05:10.674Z,5.00
2017-11-20T17:07:43.327Z,4.90
2017-11-20T17:10:16.003Z,4.90
2017-11-20T17:12:49.447Z,4.90
2017-11-20T17:15:21.958Z,5.00
2017-11-20T17:17:54.424Z,5.00
2017-11-20T17:20:27.037Z,5.00
2017-11-20T17:22:59.695Z,5.00
2017-11-20T17:25:32.273Z,5.10
2017-11-20T17:28:04.913Z,5.20
2017-11-20T17:30:37.413Z,5.20
2017-11-20T17:33:10.830Z,5.20
2017-11-20T17:35:43.593Z,5.20
2017-11-20T17:38:16.245Z,5.30
2017-11-20T17:40:48.835Z,5.30
2017-11-20T17:43:21.462Z,5.30
2017-11-20T17:45:54.834Z,5.40
2017-11-20T17:48:28.957Z,5.40
2017-11-20T17:51:02.684Z,5.40
2017-11-20T17:53:35.275Z,5.40
2017-11-20T17:56:07.938Z,5.50
2017-11-20T17:58:40.515Z,5.50
2017-11-20T18:01:13.029Z,5.50
2017-11-20T18:03:45.450Z,5.50
2017-11-20T18:06:18.238Z,5.50
2017-11-20T18:08:50.662Z,5.60
2017-11-20T18:11:24.208Z,5.60
2017-11-20T18:13:57.111Z,5.60
2017-11-20T18:16:30.577Z,5.60
2017-11-20T18:19:03.870Z,5.60
2017-11-20T18:21:37.127Z,5.60
2017-11-20T18:24:10.735Z,5.70
2017-11-20T18:26:43.970Z,5.70
2017-11-20T18:29:17.135Z,5.70
2017-11-20T18:31:50.475Z,5.80
2017-11-20T18:34:23.366Z,5.80
2017-11-20T18:36:56.597Z,5.90
2017-11-20T18:39:31.025Z,5.90
2017-11-20T18:42:04.812Z,5.90
2017-11-20T18:44:39.068Z,5.90
2017-11-20T18:47:14.724Z,6.00
2017-11-20T18:49:48.522Z,6.00
2017-11-20T18:52:21.999Z,6.00
2017-11-20T18:54:55.887Z,6.10
2017-11-20T18:57:30.903Z,6.00
2017-11-20T19:00:23.339Z,6.00
2017-11-20T19:03:16.959Z,6.10
2017-11-20T19:09:18.572Z,6.10
2017-11-20T19:11:53.619Z,6.20
2017-11-20T19:14:28.182Z,6.10
2017-11-20T19:17:03.774Z,6.20
2017-11-20T19:19:38.284Z,6.20
2017-11-20T19:22:12.818Z,6.30
2017-11-20T19:24:47.996Z,6.30
2017-11-20T19:27:23.623Z,6.30
2017-11-20T19:29:59.241Z,6.40
2017-11-20T19:32:34.749Z,6.40
2017-11-20T19:35:10.335Z,6.40
2017-11-20T19:37:45.049Z,6.40
2017-11-20T19:40:20.741Z,6.40
2017-11-20T19:42:55.999Z,6.40
2017-11-20T19:45:31.218Z,6.50
2017-11-20T19:48:06.217Z,6.50
2017-11-20T19:50:41.525Z,6.50
2017-11-20T19:53:16.564Z,6.50
2017-11-20T19:55:51.838Z,6.50
2017-11-20T19:58:26.154Z,6.50
2017-11-20T20:01:00.990Z,6.50
2017-11-20T20:03:36.390Z,6.40
2017-11-20T20:06:10.875Z,6.40
2017-11-20T20:08:45.677Z,6.40
2017-11-20T20:11:21.610Z,6.30
2017-11-20T20:13:56.878Z,6.20
2017-11-20T20:16:40.130Z,6.20
2017-11-20T20:19:15.272Z,6.20
2017-11-20T20:21:50.648Z,6.10
2017-11-20T20:24:25.137Z,6.00
2017-11-20T20:26:59.652Z,6.00
2017-11-20T20:29:33.765Z,5.90
2017-11-20T20:32:08.542Z,5.80
2017-11-20T20:34:43.068Z,5.70
2017-11-20T20:37:17.674Z,5.60
2017-11-20T20:39:52.151Z,5.60
2017-11-20T20:42:27.319Z,5.50
2017-11-20T20:45:02.152Z,5.50
2017-11-20T20:47:36.827Z,5.40
2017-11-20T20:50:11.368Z,5.30
2017-11-20T20:52:46.409Z,5.20
2017-11-20T20:55:22.108Z,5.20
2017-11-20T20:57:56.939Z,5.10
2017-11-20T21:00:31.068Z,5.10
2017-11-20T21:03:06.113Z,5.10
2017-11-20T21:05:40.403Z,5.10
2017-11-20T21:08:19.238Z,5.00
2017-11-20T21:10:59.159Z,4.90
2017-11-20T21:13:34.212Z,4.90
2017-11-20T21:16:08.721Z,4.90
2017-11-20T21:18:43.986Z,4.90
2017-11-20T21:21:19.271Z,4.90
2017-11-20T21:23:54.202Z,4.90
2017-11-20T21:26:29.234Z,4.90
2017-11-20T21:29:04.223Z,4.90
2017-11-20T21:31:39.234Z,4.90
2017-11-20T21:34:14.096Z,4.90
2017-11-20T21:36:48.971Z,4.90
2017-11-20T21:39:23.390Z,4.90
2017-11-20T21:41:57.851Z,4.90
2017-11-20T21:44:32.899Z,4.90
2017-11-20T21:47:08.580Z,4.90
2017-11-20T21:49:42.998Z,4.90
2017-11-20T21:52:17.924Z,5.00
2017-11-20T21:54:51.829Z,4.90
2017-11-20T21:57:26.436Z,5.00
2017-11-20T22:00:01.445Z,5.00
2017-11-20T22:02:35.414Z,5.00
2017-11-20T22:05:09.673Z,5.00
2017-11-20T22:07:44.436Z,5.00
2017-11-20T22:10:17.963Z,5.10
2017-11-20T22:13:09.695Z,5.10
2017-11-20T22:15:42.873Z,5.10
2017-11-20T22:18:16.324Z,5.10
2017-11-20T22:20:49.126Z,5.10
2017-11-20T22:23:21.746Z,5.10
2017-11-20T22:25:54.615Z,5.10
2017-11-20T22:28:27.048Z,5.20
2017-11-20T22:31:01.277Z,5.20
2017-11-20T22:33:34.251Z,5.20
2017-11-20T22:36:07.208Z,5.20
2017-11-20T22:38:39.705Z,5.30
2017-11-20T22:41:13.391Z,5.30
2017-11-20T22:43:46.106Z,5.30
2017-11-20T22:46:20.344Z,5.40
2017-11-20T22:48:52.826Z,5.30
2017-11-20T22:51:25.810Z,5.40
2017-11-20T22:53:59.170Z,5.30
2017-11-20T22:56:32.648Z,5.40
2017-11-20T22:59:05.535Z,5.40
2017-11-20T23:01:39.591Z,5.40
2017-11-20T23:04:12.714Z,5.40
2017-11-20T23:06:45.953Z,5.50
2017-11-20T23:09:19.474Z,5.50
2017-11-20T23:11:53.687Z,5.50
2017-11-20T23:14:26.644Z,5.50
2017-11-20T23:17:00.106Z,5.50
2017-11-20T23:19:32.664Z,5.60
2017-11-20T23:22:06.188Z,5.60
2017-11-20T23:24:39.859Z,5.70
2017-11-20T23:27:12.662Z,5.70
2017-11-20T23:29:45.379Z,5.80
2017-11-20T23:32:17.823Z,5.80
2017-11-20T23:34:50.875Z,5.90
2017-11-20T23:37:23.320Z,5.90
2017-11-20T23:39:55.817Z,5.90
2017-11-20T23:42:28.651Z,6.00
2017-11-20T23:45:01.482Z,6.00
2017-11-20T23:47:34.620Z,6.00
2017-11-20T23:50:07.366Z,6.10
2017-11-20T23:52:40.102Z,6.10
2017-11-20T23:55:12.710Z,6.10
2017-11-20T23:57:45.975Z,6.20
